createdAt,value
2018-06-27T00:02:07.799Z,20.45
2018-06-27T00:04:37.384Z,20.51
2018-06-27T00:07:07.125Z,20.55
2018-06-27T00:09:37.677Z,20.70
2018-06-27T00:12:07.484Z,20.67
2018-06-27T00:14:38.136Z,20.77
2018-06-27T00:17:07.791Z,20.95
2018-06-27T00:19:38.149Z,20.99
2018-06-27T00:22:08.926Z,21.05
2018-06-27T00:24:38.996Z,21.12
2018-06-27T00:27:08.613Z,21.21
2018-06-27T00:29:38.207Z,21.22
2018-06-27T00:32:07.771Z,21.36
2018-06-27T00:34:37.809Z,21.42
2018-06-27T00:37:07.374Z,21.46
2018-06-27T00:39:37.000Z,21.57
2018-06-27T00:42:06.645Z,21.53
2018-06-27T00:44:36.515Z,21.59
2018-06-27T00:47:07.203Z,21.62
2018-06-27T00:49:37.128Z,21.66
2018-06-27T00:52:06.854Z,21.69
2018-06-27T00:54:36.426Z,21.71
2018-06-27T00:57:06.057Z,21.70
2018-06-27T00:59:35.326Z,21.75
2018-06-27T01:02:05.094Z,21.77
2018-06-27T01:04:35.922Z,21.60
2018-06-27T01:07:05.891Z,21.58
2018-06-27T01:09:36.044Z,21.48
2018-06-27T01:12:05.626Z,21.59
2018-06-27T01:14:35.160Z,21.61
2018-06-27T01:17:04.695Z,21.62
2018-06-27T01:19:34.291Z,21.75
2018-06-27T01:22:03.792Z,21.76
2018-06-27T01:24:33.264Z,21.68
2018-06-27T01:27:02.848Z,21.69
2018-06-27T01:29:33.956Z,21.79
2018-06-27T01:32:03.692Z,21.81
2018-06-27T01:34:39.390Z,21.86
2018-06-27T01:37:09.290Z,21.84
2018-06-27T01:39:38.933Z,21.85
2018-06-27T01:42:08.696Z,21.85
2018-06-27T01:44:38.326Z,21.87
2018-06-27T01:47:08.136Z,21.88
2018-06-27T01:49:37.615Z,21.88
2018-06-27T01:52:07.315Z,21.93
2018-06-27T01:54:36.908Z,21.88
2018-06-27T01:57:06.888Z,21.80
2018-06-27T01:59:36.457Z,21.80
2018-06-27T02:02:06.631Z,21.84
2018-06-27T02:04:37.849Z,21.77
2018-06-27T02:07:08.408Z,21.86
2018-06-27T02:09:38.378Z,21.85
2018-06-27T02:12:08.520Z,21.85
2018-06-27T02:14:38.346Z,21.81
2018-06-27T02:17:08.962Z,21.76
2018-06-27T02:19:40.032Z,21.61
2018-06-27T02:22:09.647Z,21.57
2018-06-27T02:24:39.351Z,21.54
2018-06-27T02:27:09.288Z,21.42
2018-06-27T02:29:39.456Z,21.30
2018-06-27T02:32:09.699Z,21.30
2018-06-27T02:34:39.306Z,21.42
2018-06-27T02:37:09.076Z,21.40
2018-06-27T02:39:38.702Z,21.35
2018-06-27T02:42:08.165Z,21.31
2018-06-27T02:44:37.811Z,21.35
2018-06-27T02:47:07.671Z,21.26
2018-06-27T02:49:37.193Z,21.38
2018-06-27T02:52:06.674Z,21.36
2018-06-27T02:54:36.322Z,21.36
2018-06-27T02:57:06.045Z,21.40
2018-06-27T02:59:35.652Z,21.44
2018-06-27T03:02:05.294Z,21.42
2018-06-27T03:04:34.948Z,21.41
2018-06-27T03:07:04.506Z,21.31
2018-06-27T03:09:34.049Z,21.25
2018-06-27T03:12:03.786Z,21.22
2018-06-27T03:14:33.424Z,21.18
2018-06-27T03:17:03.037Z,21.29
2018-06-27T03:19:33.916Z,21.35
2018-06-27T03:22:04.085Z,21.26
2018-06-27T03:24:33.661Z,21.43
2018-06-27T03:27:04.493Z,21.54
2018-06-27T03:29:34.172Z,21.60
2018-06-27T03:32:03.779Z,21.66
2018-06-27T03:34:34.347Z,21.60
2018-06-27T03:37:03.940Z,21.59
2018-06-27T03:39:33.495Z,21.67
2018-06-27T03:42:03.651Z,21.79
2018-06-27T03:44:33.757Z,21.91
2018-06-27T03:47:03.826Z,21.98
2018-06-27T03:49:33.598Z,21.82
2018-06-27T03:52:03.408Z,21.89
2018-06-27T03:54:33.089Z,21.99
2018-06-27T03:57:02.751Z,22.01
2018-06-27T03:59:32.381Z,21.95
2018-06-27T04:02:02.048Z,22.09
2018-06-27T04:04:33.027Z,22.16
2018-06-27T04:07:02.565Z,22.21
2018-06-27T04:09:32.680Z,22.18
2018-06-27T04:12:02.224Z,22.25
2018-06-27T04:14:32.536Z,22.35
2018-06-27T04:17:02.931Z,22.37
2018-06-27T04:19:33.361Z,22.38
2018-06-27T04:22:03.499Z,22.51
2018-06-27T04:24:33.053Z,22.47
2018-06-27T04:27:02.591Z,22.66
2018-06-27T04:29:32.435Z,22.79
2018-06-27T04:32:01.683Z,22.81
2018-06-27T04:34:31.170Z,22.86
2018-06-27T04:37:03.565Z,22.89
2018-06-27T04:39:33.970Z,22.97
2018-06-27T04:42:03.441Z,22.82
2018-06-27T04:44:34.012Z,22.81
2018-06-27T04:47:03.553Z,22.91
2018-06-27T04:49:33.152Z,22.85
2018-06-27T04:52:03.318Z,22.92
2018-06-27T04:54:32.894Z,22.94
2018-06-27T04:57:02.982Z,22.70
2018-06-27T04:59:33.150Z,22.55
2018-06-27T05:02:03.366Z,22.65
2018-06-27T05:04:32.993Z,22.72
2018-06-27T05:07:02.491Z,22.67
2018-06-27T05:09:32.047Z,22.56
2018-06-27T05:12:03.455Z,22.65
2018-06-27T05:14:35.305Z,22.93
2018-06-27T05:17:04.908Z,23.11
2018-06-27T05:19:39.056Z,23.03
2018-06-27T05:22:09.534Z,23.14
2018-06-27T05:24:39.034Z,23.27
2018-06-27T05:27:08.757Z,23.48
2018-06-27T05:29:38.329Z,23.45
2018-06-27T05:32:07.821Z,23.52
2018-06-27T05:34:37.348Z,23.40
2018-06-27T05:37:07.145Z,23.54
2018-06-27T05:39:36.622Z,23.57
2018-06-27T05:42:06.174Z,23.75
2018-06-27T05:44:35.628Z,23.86
2018-06-27T05:47:05.134Z,23.97
2018-06-27T05:49:34.697Z,24.07
2018-06-27T05:52:04.198Z,24.19
2018-06-27T05:54:33.823Z,24.30
2018-06-27T05:57:03.746Z,24.44
2018-06-27T05:59:33.286Z,24.65
2018-06-27T06:02:02.854Z,24.93
2018-06-27T06:04:32.359Z,25.12
2018-06-27T06:07:01.813Z,25.11
2018-06-27T06:09:31.350Z,25.11
2018-06-27T06:12:00.829Z,25.11
2018-06-27T06:14:30.422Z,24.69
2018-06-27T06:16:59.941Z,24.56
2018-06-27T06:19:29.432Z,24.48
2018-06-27T06:21:59.147Z,24.39
2018-06-27T06:24:28.722Z,24.51
2018-06-27T06:26:58.502Z,24.26
2018-06-27T06:29:28.061Z,24.64
2018-06-27T06:32:04.475Z,24.95
2018-06-27T06:34:33.933Z,25.06
2018-06-27T06:37:03.380Z,25.27
2018-06-27T06:39:33.219Z,25.24
2018-06-27T06:42:03.483Z,25.52
2018-06-27T06:44:33.341Z,25.66
2018-06-27T06:47:03.215Z,25.76
2018-06-27T06:49:32.725Z,25.76
2018-06-27T06:52:02.212Z,25.91
2018-06-27T06:54:31.698Z,26.05
2018-06-27T06:57:01.174Z,25.97
2018-06-27T06:59:30.720Z,26.01
2018-06-27T07:02:00.270Z,26.41
2018-06-27T07:04:29.750Z,26.51
2018-06-27T07:06:59.302Z,26.75
2018-06-27T07:09:28.823Z,27.12
2018-06-27T07:11:58.335Z,27.38
2018-06-27T07:14:27.920Z,27.56
2018-06-27T07:16:57.398Z,27.60
2018-06-27T07:19:26.962Z,27.60
2018-06-27T07:21:56.510Z,27.56
2018-06-27T07:24:26.036Z,27.41
2018-06-27T07:26:55.527Z,27.29
2018-06-27T07:29:25.024Z,27.42
2018-06-27T07:31:54.521Z,27.65
2018-06-27T07:34:24.106Z,27.71
2018-06-27T07:36:53.741Z,27.77
2018-06-27T07:39:23.209Z,27.84
2018-06-27T07:41:52.752Z,27.89
2018-06-27T07:44:22.371Z,27.88
2018-06-27T07:46:51.950Z,28.10
2018-06-27T07:49:21.466Z,28.22
2018-06-27T07:51:51.180Z,28.29
2018-06-27T07:54:20.702Z,28.28
2018-06-27T07:56:50.216Z,28.18
2018-06-27T07:59:19.752Z,28.21
2018-06-27T08:01:49.318Z,28.24
2018-06-27T08:04:19.086Z,28.34
2018-06-27T08:06:48.535Z,28.31
2018-06-27T08:09:18.014Z,28.29
2018-06-27T08:11:47.705Z,27.75
2018-06-27T08:14:17.223Z,27.62
2018-06-27T08:16:46.726Z,27.79
2018-06-27T08:19:16.384Z,27.95
2018-06-27T08:21:45.978Z,28.06
2018-06-27T08:24:15.692Z,28.10
2018-06-27T08:26:45.440Z,28.39
2018-06-27T08:29:15.077Z,28.84
2018-06-27T08:31:44.763Z,29.12
2018-06-27T08:34:14.402Z,29.31
2018-06-27T08:36:44.116Z,29.42
2018-06-27T08:39:13.618Z,29.65
2018-06-27T08:41:43.142Z,29.77
2018-06-27T08:44:12.656Z,29.92
2018-06-27T08:46:42.131Z,30.20
2018-06-27T08:49:11.702Z,30.47
2018-06-27T08:51:41.210Z,30.40
2018-06-27T08:54:10.716Z,30.37
2018-06-27T08:56:40.214Z,30.47
2018-06-27T08:59:09.744Z,30.38
2018-06-27T09:01:39.282Z,30.41
2018-06-27T09:04:08.780Z,31.36
2018-06-27T09:06:38.304Z,31.93
2018-06-27T09:09:10.899Z,32.15
2018-06-27T09:11:40.688Z,32.44
2018-06-27T09:14:10.178Z,32.93
2018-06-27T09:16:39.771Z,32.74
2018-06-27T09:19:09.427Z,33.43
2018-06-27T09:21:38.986Z,33.90
2018-06-27T09:24:08.572Z,34.61
2018-06-27T09:26:38.340Z,34.05
2018-06-27T09:29:08.767Z,34.31
2018-06-27T09:31:38.320Z,35.43
2018-06-27T09:34:07.971Z,35.77
2018-06-27T09:36:37.573Z,36.36
2018-06-27T09:39:10.747Z,36.69
2018-06-27T09:41:40.453Z,37.36
2018-06-27T09:44:10.134Z,36.92
2018-06-27T09:46:39.835Z,36.49
2018-06-27T09:49:09.456Z,36.76
2018-06-27T09:51:39.170Z,36.93
2018-06-27T09:54:08.859Z,36.45
2018-06-27T09:56:38.295Z,36.93
2018-06-27T09:59:07.848Z,36.69
2018-06-27T10:01:40.482Z,35.40
2018-06-27T10:04:10.217Z,35.14
2018-06-27T10:06:39.697Z,33.84
2018-06-27T10:09:10.650Z,33.51
2018-06-27T10:11:40.377Z,33.07
2018-06-27T10:14:09.947Z,32.61
2018-06-27T10:16:39.675Z,32.50
2018-06-27T10:19:09.208Z,31.89
2018-06-27T10:21:38.949Z,32.30
2018-06-27T10:24:08.539Z,32.33
2018-06-27T10:26:38.190Z,31.30
2018-06-27T10:29:07.741Z,31.62
2018-06-27T10:31:37.467Z,31.53
2018-06-27T10:34:07.024Z,31.42
2018-06-27T10:36:36.664Z,31.05
2018-06-27T10:39:09.913Z,30.72
2018-06-27T10:41:39.972Z,30.63
2018-06-27T10:44:09.514Z,30.82
2018-06-27T10:46:39.027Z,31.34
2018-06-27T10:49:08.596Z,32.08
2018-06-27T10:51:38.158Z,32.69
2018-06-27T10:54:07.642Z,33.35
2018-06-27T10:56:37.292Z,33.45
2018-06-27T10:59:07.706Z,33.58
2018-06-27T11:01:41.935Z,33.68
2018-06-27T11:04:11.510Z,34.41
2018-06-27T11:06:50.602Z,35.22
2018-06-27T11:09:20.750Z,35.32
2018-06-27T11:11:50.299Z,34.79
2018-06-27T11:14:19.821Z,34.78
2018-06-27T11:16:49.440Z,34.34
2018-06-27T11:19:19.016Z,34.11
2018-06-27T11:21:48.546Z,34.03
2018-06-27T11:24:18.283Z,34.02
2018-06-27T11:26:47.975Z,33.70
2018-06-27T11:29:17.472Z,33.50
2018-06-27T11:31:47.090Z,33.54
2018-06-27T11:34:16.581Z,33.62
2018-06-27T11:36:46.133Z,33.76
2018-06-27T11:39:15.655Z,34.03
2018-06-27T11:41:45.390Z,34.26
2018-06-27T11:44:14.997Z,34.64
2018-06-27T11:46:44.588Z,35.08
2018-06-27T11:49:14.022Z,34.71
2018-06-27T11:51:43.632Z,35.51
2018-06-27T11:54:13.288Z,36.63
2018-06-27T11:56:42.815Z,37.53
2018-06-27T11:59:12.412Z,38.37
2018-06-27T12:01:41.980Z,39.70
2018-06-27T12:04:11.588Z,41.15
2018-06-27T12:06:41.063Z,41.86
2018-06-27T12:09:11.419Z,42.52
2018-06-27T12:11:41.028Z,42.48
2018-06-27T12:14:11.380Z,43.46
2018-06-27T12:16:41.390Z,44.09
2018-06-27T12:19:11.018Z,44.67
2018-06-27T12:21:40.566Z,45.54
2018-06-27T12:24:09.766Z,46.02
2018-06-27T12:26:39.456Z,46.54
2018-06-27T12:29:09.203Z,47.13
2018-06-27T12:31:38.737Z,47.31
2018-06-27T12:34:08.795Z,47.49
2018-06-27T12:36:38.371Z,47.91
2018-06-27T12:39:12.288Z,47.98
2018-06-27T12:41:42.225Z,48.33
2018-06-27T12:44:11.696Z,48.07
2018-06-27T12:46:41.226Z,47.91
2018-06-27T12:49:10.762Z,48.22
2018-06-27T12:51:40.368Z,48.24
2018-06-27T12:54:10.104Z,48.37
2018-06-27T12:56:39.762Z,48.81
2018-06-27T12:59:09.340Z,49.05
2018-06-27T13:01:39.426Z,49.08
2018-06-27T13:04:09.123Z,48.78
2018-06-27T13:06:38.741Z,49.08
2018-06-27T13:09:11.716Z,49.53
2018-06-27T13:11:42.082Z,49.08
2018-06-27T13:14:11.591Z,48.98
2018-06-27T13:16:46.304Z,48.79
2018-06-27T13:19:16.070Z,48.89
2018-06-27T13:21:47.007Z,48.89
2018-06-27T13:24:16.808Z,48.48
2018-06-27T13:26:46.520Z,48.43
2018-06-27T13:29:16.256Z,47.83
2018-06-27T13:31:45.862Z,47.78
2018-06-27T13:34:15.487Z,47.40
2018-06-27T13:36:45.053Z,47.41
2018-06-27T13:39:14.633Z,47.28
2018-06-27T13:41:50.776Z,47.30
2018-06-27T13:44:20.630Z,47.10
2018-06-27T13:46:50.573Z,47.17
2018-06-27T13:49:20.172Z,46.84
2018-06-27T13:51:50.584Z,46.10
2018-06-27T13:54:20.600Z,45.57
2018-06-27T13:56:50.186Z,44.98
2018-06-27T13:59:19.836Z,44.85
2018-06-27T14:01:49.374Z,43.44
2018-06-27T14:04:18.928Z,43.53
2018-06-27T14:06:48.916Z,43.63
2018-06-27T14:09:19.770Z,43.15
2018-06-27T14:11:49.387Z,42.11
2018-06-27T14:14:20.228Z,41.51
2018-06-27T14:16:50.234Z,41.64
2018-06-27T14:19:19.776Z,41.59
2018-06-27T14:21:49.415Z,40.94
2018-06-27T14:24:23.154Z,40.48
2018-06-27T14:26:53.614Z,39.90
2018-06-27T14:29:23.203Z,39.36
2018-06-27T14:31:54.444Z,38.65
2018-06-27T14:34:24.215Z,38.84
2018-06-27T14:36:53.796Z,38.46
2018-06-27T14:39:23.361Z,38.11
2018-06-27T14:41:53.215Z,37.97
2018-06-27T14:44:23.080Z,37.50
2018-06-27T14:46:53.661Z,37.24
2018-06-27T14:49:23.471Z,37.18
2018-06-27T14:52:00.901Z,36.47
2018-06-27T14:54:38.570Z,36.79
2018-06-27T14:57:08.597Z,36.97
2018-06-27T14:59:38.577Z,37.24
2018-06-27T15:02:08.462Z,37.40
2018-06-27T15:04:39.103Z,37.38
2018-06-27T15:07:08.683Z,37.26
2018-06-27T15:09:38.344Z,37.61
2018-06-27T15:12:14.507Z,37.94
2018-06-27T15:14:44.356Z,38.07
2018-06-27T15:17:14.091Z,38.44
2018-06-27T15:19:43.689Z,38.58
2018-06-27T15:22:13.199Z,39.27
2018-06-27T15:24:42.793Z,40.52
2018-06-27T15:27:12.383Z,41.34
2018-06-27T15:29:42.605Z,41.42
2018-06-27T15:32:12.489Z,41.66
2018-06-27T15:34:42.317Z,42.44
2018-06-27T15:37:12.076Z,42.76
2018-06-27T15:39:41.921Z,42.82
2018-06-27T15:42:11.705Z,43.08
2018-06-27T15:44:41.348Z,43.16
2018-06-27T15:47:13.248Z,42.40
2018-06-27T15:49:43.608Z,42.76
2018-06-27T15:52:13.647Z,42.95
2018-06-27T15:54:43.615Z,43.51
2018-06-27T15:57:15.095Z,42.51
2018-06-27T15:59:54.661Z,42.64
2018-06-27T16:02:24.326Z,42.29
2018-06-27T16:04:54.114Z,42.20
2018-06-27T16:07:23.811Z,42.84
2018-06-27T16:09:53.853Z,42.96
2018-06-27T16:12:23.448Z,43.07
2018-06-27T16:14:53.099Z,43.07
2018-06-27T16:17:23.517Z,42.59
2018-06-27T16:19:52.804Z,42.52
2018-06-27T16:22:22.481Z,42.15
2018-06-27T16:24:52.287Z,42.37
2018-06-27T16:27:21.788Z,42.07
2018-06-27T16:29:51.302Z,40.31
2018-06-27T16:32:22.563Z,38.64
2018-06-27T16:34:52.130Z,37.85
2018-06-27T16:37:21.469Z,37.83
2018-06-27T16:39:51.070Z,38.47
2018-06-27T16:42:20.810Z,39.36
2018-06-27T16:44:50.386Z,40.09
2018-06-27T16:47:19.968Z,40.33
2018-06-27T16:49:49.533Z,40.10
2018-06-27T16:52:19.755Z,40.44
2018-06-27T16:54:51.075Z,40.40
2018-06-27T16:57:20.813Z,39.94
2018-06-27T16:59:52.141Z,40.00
2018-06-27T17:02:23.868Z,39.63
2018-06-27T17:04:54.456Z,38.55
2018-06-27T17:07:24.007Z,37.91
2018-06-27T17:09:54.635Z,38.47
2018-06-27T17:12:24.531Z,39.27
2018-06-27T17:14:54.027Z,39.72
2018-06-27T17:17:23.574Z,40.07
2018-06-27T17:19:53.234Z,39.43
2018-06-27T17:22:22.838Z,39.56
2018-06-27T17:24:52.823Z,39.43
2018-06-27T17:27:23.093Z,39.65
2018-06-27T17:29:52.975Z,39.62
2018-06-27T17:32:23.241Z,39.28
2018-06-27T17:34:54.753Z,39.63
2018-06-27T17:37:25.537Z,39.99
2018-06-27T17:39:55.907Z,39.73
2018-06-27T17:42:25.753Z,39.17
2018-06-27T17:44:55.011Z,39.34
2018-06-27T17:47:24.595Z,39.59
2018-06-27T17:49:54.230Z,39.05
2018-06-27T17:52:23.890Z,39.25
2018-06-27T17:54:53.286Z,38.63
2018-06-27T17:57:23.544Z,38.27
2018-06-27T17:59:53.381Z,38.04
2018-06-27T18:02:23.716Z,37.97
2018-06-27T18:04:53.476Z,38.05
2018-06-27T18:07:22.722Z,37.84
2018-06-27T18:09:52.531Z,37.60
2018-06-27T18:12:22.152Z,37.44
2018-06-27T18:14:54.813Z,37.58
2018-06-27T18:17:26.623Z,37.11
2018-06-27T18:19:58.184Z,36.55
2018-06-27T18:22:31.924Z,36.34
2018-06-27T18:25:04.021Z,36.17
2018-06-27T18:27:36.708Z,35.95
2018-06-27T18:30:09.241Z,35.43
2018-06-27T18:32:40.288Z,35.13
2018-06-27T18:35:13.084Z,35.19
2018-06-27T18:37:45.775Z,34.89
2018-06-27T18:40:17.978Z,34.81
2018-06-27T18:42:49.604Z,34.21
2018-06-27T18:45:22.462Z,34.04
2018-06-27T18:47:54.557Z,33.67
2018-06-27T18:50:24.046Z,33.37
2018-06-27T18:52:53.548Z,33.33
2018-06-27T18:55:23.169Z,32.93
2018-06-27T18:57:52.713Z,32.29
2018-06-27T19:00:22.222Z,31.54
2018-06-27T19:02:51.774Z,30.83
2018-06-27T19:05:21.436Z,30.44
2018-06-27T19:07:51.017Z,30.13
2018-06-27T19:10:20.537Z,29.91
2018-06-27T19:12:50.095Z,29.68
2018-06-27T19:15:20.047Z,29.47
2018-06-27T19:17:49.292Z,29.16
2018-06-27T19:20:18.835Z,29.01
2018-06-27T19:22:48.416Z,28.86
2018-06-27T19:25:18.211Z,28.79
2018-06-27T19:27:48.011Z,28.68
2018-06-27T19:30:17.755Z,28.61
2018-06-27T19:32:47.509Z,28.27
2018-06-27T19:35:17.479Z,27.94
2018-06-27T19:37:47.098Z,27.78
2018-06-27T19:40:16.753Z,27.58
2018-06-27T19:42:46.469Z,27.32
2018-06-27T19:45:16.040Z,27.24
2018-06-27T19:47:45.602Z,27.21
2018-06-27T19:50:15.294Z,27.11
2018-06-27T19:52:44.945Z,27.03
2018-06-27T19:55:14.690Z,26.88
2018-06-27T19:57:44.314Z,26.84
2018-06-27T20:00:14.253Z,26.73
2018-06-27T20:02:43.890Z,26.74
2018-06-27T20:05:13.582Z,26.44
2018-06-27T20:07:43.381Z,26.42
2018-06-27T20:10:13.153Z,26.28
2018-06-27T20:12:42.994Z,26.10
2018-06-27T20:15:13.500Z,26.02
2018-06-27T20:17:43.969Z,25.98
2018-06-27T20:20:13.643Z,25.90
2018-06-27T20:22:43.428Z,25.90
2018-06-27T20:25:13.206Z,25.85
2018-06-27T20:27:42.941Z,25.66
2018-06-27T20:30:12.653Z,25.72
2018-06-27T20:32:42.389Z,25.54
2018-06-27T20:35:11.971Z,25.46
2018-06-27T20:37:41.844Z,25.42
2018-06-27T20:40:11.661Z,25.29
2018-06-27T20:42:41.626Z,25.26
2018-06-27T20:45:11.420Z,25.31
2018-06-27T20:47:41.408Z,25.19
2018-06-27T20:50:11.239Z,25.12
2018-06-27T20:52:41.008Z,25.04
2018-06-27T20:55:10.695Z,25.00
2018-06-27T20:57:40.433Z,24.77
2018-06-27T21:00:10.270Z,24.92
2018-06-27T21:02:40.071Z,24.91
2018-06-27T21:05:09.748Z,24.85
2018-06-27T21:07:39.436Z,24.76
2018-06-27T21:10:09.254Z,24.57
2018-06-27T21:12:38.834Z,24.60
2018-06-27T21:15:08.462Z,24.51
2018-06-27T21:17:38.180Z,24.48
2018-06-27T21:20:08.445Z,24.48
2018-06-27T21:22:41.962Z,24.37
2018-06-27T21:25:11.795Z,24.37
2018-06-27T21:27:41.408Z,24.33
2018-06-27T21:30:11.069Z,24.23
2018-06-27T21:32:41.309Z,24.24
2018-06-27T21:35:10.958Z,24.20
2018-06-27T21:37:40.932Z,24.29
2018-06-27T21:40:10.181Z,24.19
2018-06-27T21:42:39.803Z,24.09
2018-06-27T21:45:09.426Z,24.00
2018-06-27T21:47:39.009Z,23.99
2018-06-27T21:50:08.753Z,23.93
2018-06-27T21:52:38.435Z,23.80
2018-06-27T21:55:08.084Z,23.83
2018-06-27T21:57:37.881Z,23.81
2018-06-27T22:00:09.984Z,23.72
2018-06-27T22:02:39.818Z,23.66
2018-06-27T22:05:09.536Z,23.71
2018-06-27T22:07:39.366Z,23.69
2018-06-27T22:10:09.112Z,23.60
2018-06-27T22:12:38.827Z,23.58
2018-06-27T22:15:08.368Z,23.51
2018-06-27T22:17:38.509Z,23.48
2018-06-27T22:20:09.272Z,23.56
2018-06-27T22:22:38.945Z,23.46
2018-06-27T22:25:08.842Z,23.43
2018-06-27T22:27:38.670Z,23.41
2018-06-27T22:30:08.560Z,23.33
2018-06-27T22:32:38.250Z,23.14
2018-06-27T22:35:07.863Z,23.25
2018-06-27T22:37:37.468Z,23.23
2018-06-27T22:40:07.027Z,23.21
2018-06-27T22:42:36.691Z,23.24
2018-06-27T22:45:06.334Z,23.19
2018-06-27T22:47:35.937Z,23.19
2018-06-27T22:50:05.528Z,23.14
2018-06-27T22:52:35.302Z,23.08
2018-06-27T22:55:05.004Z,23.05
2018-06-27T22:57:34.616Z,22.97
2018-06-27T23:00:04.341Z,23.06
2018-06-27T23:02:34.018Z,23.04
2018-06-27T23:05:03.689Z,23.01
2018-06-27T23:07:33.360Z,23.00
2018-06-27T23:10:03.048Z,23.02
2018-06-27T23:12:32.619Z,23.00
2018-06-27T23:15:02.207Z,22.96
2018-06-27T23:17:31.774Z,22.91
2018-06-27T23:20:01.594Z,22.81
2018-06-27T23:22:47.569Z,22.89
2018-06-27T23:25:17.295Z,22.90
2018-06-27T23:27:47.481Z,22.90
2018-06-27T23:30:17.128Z,22.92
2018-06-27T23:32:46.740Z,22.94
2018-06-27T23:35:16.320Z,22.93
2018-06-27T23:37:45.990Z,22.86
2018-06-27T23:40:15.711Z,22.86
2018-06-27T23:42:45.399Z,22.89
2018-06-27T23:45:14.982Z,22.89
2018-06-27T23:47:44.562Z,22.88
2018-06-27T23:50:14.149Z,22.86
2018-06-27T23:52:43.988Z,22.89
2018-06-27T23:55:13.619Z,22.89
2018-06-27T23:57:43.259Z,22.97
